Time;durP1;ratioP1;P1;durP2;ratioP2;P2;SDS_P1;SDS_P2;PMS_P1;PMS_P2;Temp;Humidity;BMP_temperature;BMP_pressure;BME280_temperature;BME280_humidity;BME280_pressure;Samples;Min_cycle;Max_cycle;Signal;HPM_P1;HPM_P2
2023/06/19 00:04:15;;;;;;;86.28;34.25;;;;;;;18.48;100.00;100620.11;5068873;57;1145123;-70
2023/06/19 00:09:21;;;;;;;74.82;30.12;;;;;;;18.46;100.00;100618.59;5005845;57;1145299;-75
2023/06/19 00:14:27;;;;;;;78.55;30.62;;;;;;;18.38;100.00;100622.09;4806370;59;1144957;-74
2023/06/19 00:19:36;;;;;;;74.55;31.80;;;;;;;18.34;100.00;100616.73;4872095;58;1145192;-71
2023/06/19 00:24:42;;;;;;;75.25;31.37;;;;;;;18.33;100.00;100615.58;4932798;58;1145182;-73
2023/06/19 00:29:48;;;;;;;75.52;30.92;;;;;;;18.32;100.00;100622.78;4947019;58;1145213;-76
2023/06/19 00:34:53;;;;;;;82.65;30.17;;;;;;;18.28;100.00;100621.43;4945696;58;1145261;-71
2023/06/19 00:39:59;;;;;;;46.50;17.70;;;;;;;18.08;100.00;100617.38;4924150;56;1145105;-75
2023/06/19 00:45:06;;;;;;;40.92;16.50;;;;;;;17.84;100.00;100612.33;5059978;57;1145142;-76
2023/06/19 00:50:12;;;;;;;37.28;17.80;;;;;;;17.68;100.00;100600.75;4964374;58;1145213;-78
2023/06/19 00:55:19;;;;;;;30.92;15.10;;;;;;;17.53;100.00;100593.81;4985093;58;1144982;-73
2023/06/19 01:00:25;;;;;;;27.97;14.27;;;;;;;17.46;100.00;100589.59;4978412;57;1144999;-75
2023/06/19 01:05:31;;;;;;;25.85;13.03;;;;;;;17.42;100.00;100581.55;5031414;57;1144978;-73
2023/06/19 01:10:47;;;;;;;31.17;14.00;;;;;;;17.41;100.00;100581.25;4996889;58;1145324;-71
2023/06/19 01:15:55;;;;;;;22.27;12.73;;;;;;;17.55;100.00;100581.12;4976956;58;1145285;-75
2023/06/19 01:21:17;;;;;;;34.00;14.60;;;;;;;17.54;100.00;100589.64;4978328;58;1145325;-74
2023/06/19 01:26:30;;;;;;;57.57;20.40;;;;;;;17.50;100.00;100587.45;4977494;57;1145008;-76
2023/06/19 01:31:42;;;;;;;25.30;12.77;;;;;;;17.37;100.00;100591.08;4997260;57;1144858;-75
2023/06/19 01:36:49;;;;;;;34.07;15.17;;;;;;;17.26;100.00;100592.21;4977858;57;1145078;-70
2023/06/19 01:41:57;;;;;;;36.00;14.98;;;;;;;17.21;100.00;100590.01;4988122;57;1145032;-70
2023/06/19 01:47:15;;;;;;;57.66;22.58;;;;;;;17.18;100.00;100588.98;5055184;57;1145096;-78
2023/06/19 01:52:20;;;;;;;44.97;20.27;;;;;;;17.23;100.00;100589.85;5064830;57;1145199;-73
2023/06/19 01:57:26;;;;;;;47.67;20.07;;;;;;;17.26;100.00;100592.70;5079394;56;1145254;-73
2023/06/19 02:02:32;;;;;;;37.10;17.57;;;;;;;17.23;100.00;100589.85;5074992;56;1145052;-76
2023/06/19 02:07:37;;;;;;;35.33;15.57;;;;;;;17.18;100.00;100587.65;5079734;57;1145217;-78
2023/06/19 02:12:43;;;;;;;27.78;13.26;;;;;;;17.06;100.00;100578.73;4885220;59;1145048;-70
2023/06/19 02:17:49;;;;;;;23.83;12.13;;;;;;;17.01;100.00;100589.05;5060328;57;1145154;-71
2023/06/19 02:22:54;;;;;;;25.10;13.73;;;;;;;16.97;100.00;100587.69;4896492;58;1145287;-71
2023/06/19 02:28:00;;;;;;;25.03;13.63;;;;;;;16.92;100.00;100584.18;4831534;58;1144995;-77
2023/06/19 02:33:06;;;;;;;31.93;16.90;;;;;;;16.86;100.00;100582.97;5004365;57;1145241;-70
2023/06/19 02:38:15;;;;;;;34.08;16.75;;;;;;;16.78;100.00;100584.27;4991692;56;1145170;-73
2023/06/19 02:43:20;;;;;;;29.87;14.73;;;;;;;16.76;100.00;100592.09;5048540;56;1145021;-77
2023/06/19 02:48:26;;;;;;;29.80;15.20;;;;;;;16.72;100.00;100598.73;5086435;56;1145153;-83
2023/06/19 02:53:33;;;;;;;24.77;14.60;;;;;;;16.72;100.00;100600.06;5093951;56;1144982;-74
2023/06/19 02:58:38;;;;;;;17.70;13.50;;;;;;;16.74;100.00;100593.58;5098558;56;1145392;-79
2023/06/19 03:03:47;;;;;;;28.60;15.40;;;;;;;16.63;100.00;100599.19;5066361;56;1145394;-80
2023/06/19 03:08:51;;;;;;;24.40;14.30;;;;;;;16.63;100.00;100597.85;5061142;56;1145175;-75
2023/06/19 03:13:58;;;;;;;20.70;13.47;;;;;;;16.70;100.00;100602.05;5079791;56;1145259;-77
2023/06/19 03:19:04;;;;;;;28.90;14.22;;;;;;;16.78;100.00;100602.97;5060090;56;1145401;-72
2023/06/19 03:24:11;;;;;;;31.80;14.83;;;;;;;16.80;100.00;100598.80;4978222;57;1145001;-79
2023/06/19 03:29:17;;;;;;;25.63;14.67;;;;;;;16.80;100.00;100600.14;4997097;57;1145169;-74
2023/06/19 03:34:24;;;;;;;26.76;14.06;;;;;;;16.80;100.00;100594.27;5039616;56;1145389;-79
2023/06/19 03:39:30;;;;;;;17.80;11.67;;;;;;;16.75;100.00;100594.42;4978521;56;1145507;-75
2023/06/19 03:44:38;;;;;;;23.37;13.57;;;;;;;16.77;100.00;100600.45;4998217;56;1145108;-74
2023/06/19 03:49:43;;;;;;;32.13;14.63;;;;;;;16.78;100.00;100592.78;4977863;56;1145052;-77
2023/06/19 03:54:49;;;;;;;29.63;15.00;;;;;;;16.75;100.00;100584.58;4978863;56;1145118;-70
2023/06/19 03:59:57;;;;;;;28.80;16.37;;;;;;;16.71;100.00;100590.38;5002323;56;1145228;-71
2023/06/19 04:05:04;;;;;;;27.20;16.80;;;;;;;16.61;100.00;100590.95;4904618;58;1145306;-73
2023/06/19 04:10:11;;;;;;;39.98;20.52;;;;;;;16.61;100.00;100585.61;4886885;57;1145140;-76
2023/06/19 04:15:17;;;;;;;43.05;19.57;;;;;;;16.68;100.00;100585.34;4906258;58;1145056;-70
2023/06/19 04:20:23;;;;;;;31.00;18.73;;;;;;;16.76;100.00;100588.92;4887675;57;1145092;-74
2023/06/19 04:25:28;;;;;;;36.10;19.93;;;;;;;16.78;100.00;100596.78;4925648;56;1145147;-77
2023/06/19 04:30:34;;;;;;;23.87;15.23;;;;;;;16.79;100.00;100597.13;4992690;57;1144934;-73
2023/06/19 04:35:40;;;;;;;29.90;15.80;;;;;;;16.85;100.00;100587.97;4978002;57;1145213;-80
2023/06/19 04:40:46;;;;;;;26.13;17.23;;;;;;;17.01;100.00;100591.73;4970221;57;1145101;-77
2023/06/19 04:45:52;;;;;;;32.77;16.93;;;;;;;17.13;100.00;100596.63;5032082;57;1145219;-78
2023/06/19 04:51:00;;;;;;;30.87;16.33;;;;;;;17.27;100.00;100596.53;4996652;57;1171006;-78
2023/06/19 04:56:05;;;;;;;25.57;17.03;;;;;;;17.41;100.00;100601.80;5046449;57;1145517;-79
2023/06/19 05:01:11;;;;;;;30.80;17.90;;;;;;;17.55;100.00;100600.68;4939894;57;1145124;-72
2023/06/19 05:06:17;;;;;;;21.73;16.05;;;;;;;17.91;100.00;100590.59;5010565;57;1145056;-76
2023/06/19 05:11:22;;;;;;;23.97;15.47;;;;;;;17.91;100.00;100590.59;4980765;57;1145549;-69
2023/06/19 05:16:28;;;;;;;19.43;14.07;;;;;;;18.10;100.00;100589.95;5010450;57;1145210;-75
2023/06/19 05:21:34;;;;;;;17.80;12.60;;;;;;;18.24;100.00;100588.79;4919828;57;1145082;-78
2023/06/19 05:26:39;;;;;;;22.27;16.03;;;;;;;18.45;100.00;100597.67;4941366;57;1231432;-80
2023/06/19 05:31:45;;;;;;;16.93;13.38;;;;;;;18.55;100.00;100602.84;4994775;57;1145146;-71
2023/06/19 05:36:51;;;;;;;12.00;9.67;;;;;;;18.59;100.00;100592.17;5040933;57;1190109;-76
2023/06/19 05:41:56;;;;;;;11.23;10.23;;;;;;;18.81;100.00;100606.69;4995859;57;1143168;-73
2023/06/19 05:47:02;;;;;;;10.88;9.88;;;;;;;18.95;100.00;100609.51;5006636;57;1145723;-74
2023/06/19 05:52:09;;;;;;;13.95;9.55;;;;;;;19.24;100.00;100618.34;4982514;58;1143176;-80
2023/06/19 05:57:16;;;;;;;12.60;9.90;;;;;;;19.45;100.00;100620.92;4989983;56;1143339;-77
2023/06/19 06:02:22;;;;;;;13.62;9.55;;;;;;;19.70;100.00;100638.64;4966720;56;1143071;-79
2023/06/19 06:07:28;;;;;;;11.45;10.48;;;;;;;19.99;100.00;100634.78;4966292;57;1142800;-77
2023/06/19 06:12:37;;;;;;;10.28;9.23;;;;;;;20.28;100.00;100648.02;4983808;57;1145203;-74
2023/06/19 06:17:43;;;;;;;10.23;9.28;;;;;;;20.51;100.00;100648.03;4934474;57;1143234;-78
2023/06/19 06:22:48;;;;;;;10.15;9.28;;;;;;;20.75;100.00;100656.42;4946387;57;1142876;-77
2023/06/19 06:27:54;;;;;;;9.73;8.73;;;;;;;20.95;100.00;100653.52;4987636;56;1143078;-77
2023/06/19 06:33:00;;;;;;;9.60;8.70;;;;;;;21.14;100.00;100653.00;4965994;58;1233758;-77
2023/06/19 06:38:05;;;;;;;9.33;8.28;;;;;;;21.25;100.00;100657.94;5024558;57;1233169;-74
2023/06/19 06:43:11;;;;;;;12.17;7.90;;;;;;;21.39;100.00;100665.18;5029850;57;1246201;-78
2023/06/19 06:48:17;;;;;;;7.37;6.67;;;;;;;21.51;100.00;100665.58;5046939;57;1256414;-74
2023/06/19 06:53:22;;;;;;;7.90;7.10;;;;;;;21.55;98.75;100669.54;4947837;57;1246847;-78
2023/06/19 06:58:28;;;;;;;6.97;5.83;;;;;;;21.55;98.75;100669.54;5059768;57;1252634;-72
2023/06/19 07:03:34;;;;;;;7.50;6.40;;;;;;;21.60;97.19;100671.17;5085344;57;1251538;-78
2023/06/19 07:08:40;;;;;;;7.90;6.58;;;;;;;21.61;95.21;100669.31;5066690;57;1243480;-76
2023/06/19 07:13:46;;;;;;;8.93;6.90;;;;;;;21.70;95.89;100670.87;5068638;57;1240797;-70
2023/06/19 07:18:51;;;;;;;7.28;6.55;;;;;;;21.85;95.24;100662.27;5087809;57;1244941;-77
2023/06/19 07:23:58;;;;;;;7.58;6.97;;;;;;;21.96;95.99;100660.95;4986282;57;1255310;-71
2023/06/19 07:29:04;;;;;;;8.46;6.14;;;;;;;22.08;94.36;100662.16;4999412;57;1250533;-73
2023/06/19 07:34:10;;;;;;;7.00;6.30;;;;;;;22.19;92.52;100668.90;4977970;57;1254647;-82
2023/06/19 07:39:15;;;;;;;5.97;5.42;;;;;;;22.37;91.82;100665.27;4905190;57;1138630;-75
2023/06/19 07:44:21;;;;;;;6.78;6.17;;;;;;;22.53;90.00;100660.96;5067518;57;1139093;-77
2023/06/19 07:49:27;;;;;;;5.28;4.92;;;;;;;22.77;90.49;100663.27;4865296;58;1139019;-71
2023/06/19 07:54:34;;;;;;;6.12;5.30;;;;;;;22.87;87.65;100666.17;5075469;56;1139135;-77
2023/06/19 07:59:40;;;;;;;11.57;5.20;;;;;;;23.05;89.11;100674.61;5061748;57;1139359;-77
2023/06/19 08:04:47;;;;;;;7.87;5.17;;;;;;;23.40;87.92;100674.94;4985020;58;1141313;-71
2023/06/19 08:09:52;;;;;;;5.58;5.17;;;;;;;23.48;85.70;100673.44;5006030;58;1138601;-79
2023/06/19 08:14:58;;;;;;;6.00;5.42;;;;;;;23.59;83.10;100678.81;4998546;57;1231606;-71
2023/06/19 08:20:05;;;;;;;7.85;4.60;;;;;;;23.73;82.22;100668.91;5011636;57;1138940;-79
2023/06/19 08:25:10;;;;;;;6.17;4.15;;;;;;;23.80;80.24;100665.22;4986793;57;1139038;-74
2023/06/19 08:35:26;;;;;;;5.30;4.42;;;;;;;24.17;76.59;100661.68;5249287;55;47539;-78
2023/06/19 08:40:32;;;;;;;4.60;4.20;;;;;;;24.45;78.20;100656.14;4983573;57;1241506;-76
2023/06/19 08:45:38;;;;;;;4.65;4.28;;;;;;;24.70;76.39;100664.51;5016759;56;1139044;-76
2023/06/19 08:50:43;;;;;;;5.62;5.08;;;;;;;24.81;74.59;100665.23;5025022;57;1138694;-74
2023/06/19 08:55:50;;;;;;;7.33;5.15;;;;;;;24.89;73.13;100663.16;5059577;56;1138966;-76
2023/06/19 09:00:58;;;;;;;6.50;5.25;;;;;;;25.01;72.57;100658.50;5038382;57;1138758;-71
2023/06/19 09:06:08;;;;;;;8.45;5.10;;;;;;;25.10;70.40;100655.34;5054297;57;1138999;-74
2023/06/19 09:11:17;;;;;;;;;;;;;;;25.09;69.46;100647.44;5057997;57;1138697;-74
2023/06/19 09:16:24;;;;;;;5.50;5.00;;;;;;;25.15;68.43;100643.38;5089666;57;976227;-68
2023/06/19 09:21:30;;;;;;;5.75;5.20;;;;;;;25.23;68.93;100652.61;5097690;56;1137035;-70
2023/06/19 09:26:36;;;;;;;5.47;4.75;;;;;;;25.41;70.29;100647.89;5131930;56;1139250;-71
2023/06/19 09:31:41;;;;;;;8.53;5.08;;;;;;;25.67;71.56;100634.80;5074682;57;1139091;-76
2023/06/19 09:36:47;;;;;;;5.58;4.90;;;;;;;25.90;72.45;100631.58;5109267;56;1139234;-78
2023/06/19 09:41:58;;;;;;;9.33;5.28;;;;;;;26.25;71.30;100623.35;5069925;56;1138808;-76
2023/06/19 09:47:05;;;;;;;5.45;4.95;;;;;;;26.48;69.11;100631.45;5077180;56;1138853;-79
2023/06/19 09:52:11;;;;;;;5.64;4.64;;;;;;;26.54;64.79;100625.16;5056663;56;1139136;-78
2023/06/19 09:57:17;;;;;;;5.50;5.00;;;;;;;26.69;59.26;100627.01;5058006;56;1139026;-72
2023/06/19 10:02:25;;;;;;;6.40;4.72;;;;;;;26.78;62.04;100622.95;5120707;56;1138695;-77
2023/06/19 10:07:36;;;;;;;5.78;4.95;;;;;;;26.91;60.96;100630.14;5140368;56;1138857;-81
2023/06/19 10:12:47;;;;;;;6.83;4.30;;;;;;;26.94;60.26;100625.12;5128205;56;1138768;-77
2023/06/19 10:18:07;;;;;;;5.15;4.65;;;;;;;27.00;59.54;100625.30;5117249;56;1138934;-77
2023/06/19 10:23:24;;;;;;;9.44;4.96;;;;;;;27.08;59.35;100627.71;5042223;57;1138809;-74
2023/06/19 10:28:33;;;;;;;5.75;4.78;;;;;;;27.30;56.55;100627.06;5083614;56;1138821;-73
2023/06/19 10:33:45;;;;;;;5.20;4.80;;;;;;;27.52;56.12;100621.16;5149692;56;1138999;-74
2023/06/19 10:38:50;;;;;;;5.70;5.15;;;;;;;27.50;50.99;100615.95;5041700;57;1138749;-85
2023/06/19 10:44:12;;;;;;;5.83;5.28;;;;;;;27.61;53.68;100615.77;5040235;57;1139288;-80
2023/06/19 10:49:13;;;;;;;5.17;4.78;;;;;;;27.76;52.64;100615.37;5041855;57;1138793;-76
2023/06/19 10:54:19;;;;;;;5.87;5.40;;;;;;;27.73;50.39;100611.22;5061826;57;1138820;-72
2023/06/19 10:59:24;;;;;;;5.28;4.80;;;;;;;27.88;53.72;100606.73;5041730;56;1138745;-72
2023/06/19 11:04:30;;;;;;;5.50;4.58;;;;;;;28.01;50.86;100601.09;5043813;56;1138874;-73
2023/06/19 11:09:36;;;;;;;5.70;5.20;;;;;;;27.95;52.67;100602.05;5062239;57;1138600;-73
2023/06/19 11:14:42;;;;;;;5.45;4.95;;;;;;;28.01;54.60;100601.09;5094808;56;1138675;-78
2023/06/19 11:19:48;;;;;;;6.00;5.40;;;;;;;28.25;51.16;100600.16;5040953;57;1138875;-76
2023/06/19 11:24:53;;;;;;;9.90;5.42;;;;;;;28.17;50.42;100597.72;5073496;56;1138842;-69
2023/06/19 11:30:00;;;;;;;7.72;5.03;;;;;;;28.35;51.51;100596.33;5041930;57;1139017;-78
2023/06/19 11:35:12;;;;;;;5.65;5.15;;;;;;;28.49;50.53;100593.39;5068825;56;1138822;-78
2023/06/19 11:40:19;;;;;;;8.43;5.33;;;;;;;28.57;52.16;100593.86;5119601;56;1139040;-75
2023/06/19 11:45:24;;;;;;;6.62;5.53;;;;;;;28.68;52.64;100593.59;5153942;56;1138745;-74
2023/06/19 11:50:31;;;;;;;8.65;5.12;;;;;;;28.79;49.11;100582.39;5137885;56;1138726;-78
2023/06/19 11:55:36;;;;;;;11.18;5.85;;;;;;;28.83;52.16;100581.73;5100768;56;1138715;-79
2023/06/19 12:00:43;;;;;;;8.73;5.37;;;;;;;29.02;51.12;100578.34;5079011;56;1141070;-78
2023/06/19 12:05:49;;;;;;;6.00;5.47;;;;;;;29.25;52.06;100576.10;5119763;56;1138900;-72
2023/06/19 12:10:54;;;;;;;6.72;6.03;;;;;;;29.37;52.51;100575.53;5118680;56;1138894;-73
2023/06/19 12:16:00;;;;;;;6.42;5.70;;;;;;;29.36;48.73;100570.62;5158074;56;1138747;-75
2023/06/19 12:21:06;;;;;;;9.58;5.92;;;;;;;29.15;46.12;100574.53;5137849;56;1138517;-70
2023/06/19 12:26:12;;;;;;;7.17;5.42;;;;;;;29.05;46.91;100569.14;5137242;56;1138815;-74
2023/06/19 12:31:18;;;;;;;8.43;6.72;;;;;;;29.00;46.97;100568.22;5158089;56;1138949;-70
2023/06/19 12:36:24;;;;;;;8.43;5.72;;;;;;;29.04;46.34;100568.84;5137846;56;1139021;-72
2023/06/19 12:41:29;;;;;;;6.03;5.53;;;;;;;29.07;47.56;100571.63;5045919;56;1138993;-76
2023/06/19 12:46:35;;;;;;;7.03;6.12;;;;;;;29.01;47.48;100567.98;5076762;56;1138757;-73
2023/06/19 12:51:40;;;;;;;9.13;5.47;;;;;;;28.91;46.91;100561.47;5125702;56;1138816;-78
2023/06/19 12:56:46;;;;;;;16.50;5.87;;;;;;;28.87;47.47;100553.50;5041091;57;1138757;-74
2023/06/19 13:01:52;;;;;;;6.25;5.65;;;;;;;28.98;47.92;100560.28;5146274;56;1141221;-73
2023/06/19 13:06:58;;;;;;;6.70;5.62;;;;;;;29.20;49.50;100548.74;5091424;56;1138969;-77
2023/06/19 13:12:04;;;;;;;6.95;6.35;;;;;;;29.37;48.11;100536.85;5042734;56;1139041;-76
2023/06/19 13:17:10;;;;;;;12.10;6.04;;;;;;;29.51;48.04;100534.70;5030648;56;1138901;-74
2023/06/19 13:22:16;;;;;;;8.10;5.72;;;;;;;29.49;43.89;100535.47;5047059;56;1140887;-76
2023/06/19 13:27:21;;;;;;;5.78;5.37;;;;;;;29.50;42.50;100543.94;5043164;56;1139252;-74
2023/06/19 13:32:28;;;;;;;9.20;5.30;;;;;;;29.62;42.46;100542.02;5043300;56;1139110;-76
2023/06/19 13:37:38;;;;;;;7.03;5.50;;;;;;;29.62;42.46;100542.02;5130558;56;1138939;-77
2023/06/19 13:42:44;;;;;;;5.80;5.10;;;;;;;29.56;41.32;100539.44;5129694;56;1138871;-76
2023/06/19 13:47:50;;;;;;;5.55;5.05;;;;;;;29.43;41.14;100531.02;5123764;56;1138982;-71
2023/06/19 13:52:55;;;;;;;5.50;5.10;;;;;;;29.37;41.54;100529.21;5079964;56;1138811;-76
2023/06/19 13:58:01;;;;;;;9.85;5.87;;;;;;;29.33;40.65;100528.06;5071727;56;1138821;-72
2023/06/19 14:03:07;;;;;;;10.03;5.92;;;;;;;29.25;41.52;100529.79;5064306;56;1138593;-79
2023/06/19 14:08:12;;;;;;;6.12;5.53;;;;;;;29.20;41.87;100528.31;5053493;57;1141087;-71
2023/06/19 14:13:18;;;;;;;7.35;5.00;;;;;;;29.18;42.19;100534.56;5073757;57;1138693;-72
2023/06/19 14:18:24;;;;;;;6.45;5.12;;;;;;;29.13;42.33;100528.47;5073482;56;1138663;-75
2023/06/19 14:23:29;;;;;;;5.58;5.17;;;;;;;29.17;42.91;100523.38;5138134;56;1138738;-73
2023/06/19 14:28:35;;;;;;;6.67;5.65;;;;;;;29.15;42.61;100523.61;5158698;56;1138882;-75
2023/06/19 14:33:40;;;;;;;8.13;5.35;;;;;;;29.15;42.82;100520.05;5135267;56;1139125;-76
2023/06/19 14:38:46;;;;;;;9.00;6.00;;;;;;;29.13;42.92;100521.66;5090143;56;1138778;-77
2023/06/19 14:43:51;;;;;;;23.10;9.58;;;;;;;29.16;43.23;100527.16;5111572;56;1138657;-70
2023/06/19 14:48:58;;;;;;;12.15;7.15;;;;;;;29.12;42.47;100526.81;5126424;56;1140757;-80
2023/06/19 14:54:04;;;;;;;9.90;5.65;;;;;;;29.09;41.80;100524.56;5033570;57;1140942;-74
2023/06/19 14:59:10;;;;;;;20.35;8.43;;;;;;;28.97;40.96;100527.84;4999319;57;1139044;-77
2023/06/19 15:04:15;;;;;;;7.10;6.45;;;;;;;28.88;42.55;100526.01;5132056;56;1141013;-79
2023/06/19 15:09:21;;;;;;;8.28;5.95;;;;;;;28.92;43.07;100527.19;4955327;57;1138782;-78
2023/06/19 15:14:27;;;;;;;9.07;5.87;;;;;;;28.87;43.09;100529.00;5118380;56;1138840;-72
2023/06/19 15:19:32;;;;;;;9.98;5.10;;;;;;;28.69;43.05;100525.84;5137021;56;1138804;-76
2023/06/19 15:24:38;;;;;;;5.43;5.03;;;;;;;28.69;43.05;100525.84;5118183;56;1139075;-71
2023/06/19 15:29:44;;;;;;;8.20;6.05;;;;;;;28.61;43.74;100519.38;5132952;56;1138935;-75
2023/06/19 15:34:49;;;;;;;9.85;6.20;;;;;;;28.62;42.97;100527.84;5158837;56;1139059;-78
2023/06/19 15:39:55;;;;;;;6.10;5.40;;;;;;;28.50;43.26;100529.20;5090738;56;1138661;-74
2023/06/19 15:45:01;;;;;;;7.95;5.85;;;;;;;28.49;43.57;100522.11;5042581;56;1138618;-75
2023/06/19 15:50:07;;;;;;;6.37;5.70;;;;;;;28.46;43.66;100519.02;5043047;56;1138972;-74
2023/06/19 15:55:14;;;;;;;8.55;6.28;;;;;;;28.42;43.80;100517.30;5070137;56;1138818;-74
2023/06/19 16:00:20;;;;;;;6.22;5.72;;;;;;;28.36;42.74;100516.90;5052048;56;1138973;-70
2023/06/19 16:05:26;;;;;;;6.30;5.70;;;;;;;28.28;43.15;100523.50;5124837;56;1138961;-71
2023/06/19 16:10:32;;;;;;;10.20;6.00;;;;;;;28.23;44.08;100525.29;5144240;56;1138903;-73
2023/06/19 16:15:37;;;;;;;7.53;6.37;;;;;;;28.20;43.95;100517.59;5123975;56;1140984;-73
2023/06/19 16:20:43;;;;;;;35.58;7.00;;;;;;;28.14;43.84;100509.80;5126803;56;1138694;-73
2023/06/19 16:25:49;;;;;;;6.12;5.53;;;;;;;28.11;43.98;100513.54;5146514;56;1140937;-70
2023/06/19 16:30:54;;;;;;;8.15;5.37;;;;;;;28.06;43.72;100514.23;5044891;56;1139075;-78
2023/06/19 16:36:00;;;;;;;6.80;5.80;;;;;;;28.04;44.50;100519.07;5080243;56;1138929;-78
2023/06/19 16:41:06;;;;;;;7.72;5.90;;;;;;;28.02;44.79;100514.39;5131622;56;1138892;-76
2023/06/19 16:46:11;;;;;;;6.92;6.33;;;;;;;27.97;44.82;100513.72;5147540;55;1138906;-73
2023/06/19 16:51:17;;;;;;;11.30;6.22;;;;;;;27.96;45.02;100516.14;5053309;57;1138856;-79
2023/06/19 16:56:23;;;;;;;14.87;6.08;;;;;;;27.93;45.01;100511.20;5067851;56;1140947;-79
2023/06/19 17:01:28;;;;;;;8.33;6.05;;;;;;;27.87;46.09;100508.56;5062756;56;1141240;-75
2023/06/19 17:06:34;;;;;;;7.12;6.45;;;;;;;27.87;46.09;100508.56;5056091;57;1138947;-74
2023/06/19 17:11:40;;;;;;;10.45;6.72;;;;;;;27.83;46.60;100507.36;5055767;56;1138829;-77
2023/06/19 17:16:46;;;;;;;9.93;6.60;;;;;;;27.84;47.51;100511.21;5075514;57;1140994;-78
2023/06/19 17:21:51;;;;;;;8.00;7.30;;;;;;;27.85;47.70;100510.69;5055096;57;1138666;-78
2023/06/19 17:26:57;;;;;;;7.42;6.72;;;;;;;27.82;47.58;100509.78;5055240;57;1138895;-73
2023/06/19 17:32:02;;;;;;;9.13;6.92;;;;;;;27.72;47.74;100514.44;5111035;56;1139039;-72
2023/06/19 17:37:08;;;;;;;11.70;7.42;;;;;;;27.65;47.79;100520.51;5143308;56;1138797;-72
2023/06/19 17:42:14;;;;;;;14.43;7.90;;;;;;;27.62;48.26;100523.16;5140778;56;1141051;-68
2023/06/19 17:47:19;;;;;;;19.65;11.57;;;;;;;27.58;48.12;100517.04;5161050;56;1140913;-76
2023/06/19 17:52:25;;;;;;;21.62;11.05;;;;;;;27.54;48.66;100515.80;5068323;55;1143006;-68
2023/06/19 17:57:31;;;;;;;9.10;8.20;;;;;;;27.50;49.41;100512.71;4976232;57;1142908;-78
2023/06/19 18:02:37;;;;;;;15.98;9.28;;;;;;;27.48;49.98;100509.42;5037836;57;1138818;-74
2023/06/19 18:07:42;;;;;;;21.82;9.40;;;;;;;27.45;51.85;100503.61;5054340;57;1140871;-75
2023/06/19 18:12:48;;;;;;;18.85;10.18;;;;;;;27.39;53.17;100499.91;5044531;56;1140927;-69
2023/06/19 18:17:53;;;;;;;17.40;10.93;;;;;;;27.37;55.07;100506.62;5072539;57;1143146;-80
2023/06/19 18:22:59;;;;;;;18.75;10.18;;;;;;;27.34;56.50;100516.09;5074099;57;1142686;-68
2023/06/19 18:28:04;;;;;;;18.95;10.60;;;;;;;27.22;57.04;100505.67;5096523;57;1142998;-75
2023/06/19 18:33:10;;;;;;;16.86;14.50;;;;;;;26.94;58.50;100507.58;5114613;57;1143007;-71
2023/06/19 18:38:16;;;;;;;20.35;17.60;;;;;;;26.57;58.62;100512.97;5185183;56;1143065;-77
2023/06/19 18:43:23;;;;;;;17.62;12.93;;;;;;;26.18;59.66;100507.84;5108385;56;1143705;-78
2023/06/19 18:48:28;;;;;;;19.27;14.87;;;;;;;26.03;61.28;100506.82;5133671;57;1142922;-73
2023/06/19 18:53:34;;;;;;;25.70;14.90;;;;;;;26.09;62.21;100512.73;5018149;57;1143236;-74
2023/06/19 18:58:40;;;;;;;26.07;14.95;;;;;;;26.14;62.67;100517.47;5045103;56;1143140;-75
2023/06/19 19:03:45;;;;;;;20.25;14.65;;;;;;;25.96;62.80;100522.32;5017875;57;1143097;-75
2023/06/19 19:08:55;;;;;;;26.25;15.93;;;;;;;25.90;63.51;100522.66;5096321;57;1143259;-84
2023/06/19 19:13:58;;;;;;;22.82;17.87;;;;;;;25.95;64.51;100529.31;5063050;56;1142899;-73
2023/06/19 19:19:04;;;;;;;23.80;17.37;;;;;;;25.97;64.42;100530.76;5073235;56;1143021;-73
2023/06/19 19:24:10;;;;;;;21.62;15.83;;;;;;;25.82;63.77;100538.33;4962565;57;1143015;-80
2023/06/19 19:29:15;;;;;;;24.18;17.10;;;;;;;25.84;65.46;100543.84;4923969;58;1142833;-77
2023/06/19 19:34:21;;;;;;;20.48;17.57;;;;;;;25.91;67.61;100548.71;4855204;58;1143241;-77
2023/06/19 19:39:26;;;;;;;20.23;16.10;;;;;;;25.88;67.39;100555.09;4807331;58;1143031;-70
2023/06/19 19:44:32;;;;;;;32.13;18.32;;;;;;;25.82;67.32;100558.66;5090080;56;1142782;-74
2023/06/19 19:49:37;;;;;;;30.45;19.55;;;;;;;25.82;67.85;100558.13;5052084;57;1142789;-77
2023/06/19 19:54:43;;;;;;;119.02;65.05;;;;;;;25.82;69.02;100560.01;4979882;57;1143295;-76
2023/06/19 19:59:48;;;;;;;115.50;68.60;;;;;;;25.70;69.24;100563.94;5004303;57;1145074;-85
2023/06/19 20:04:54;;;;;;;103.55;60.08;;;;;;;25.58;69.51;100570.53;5085190;56;1144900;-76
2023/06/19 20:10:00;;;;;;;75.90;43.00;;;;;;;25.49;70.10;100570.48;5107333;56;1145154;-73
2023/06/19 20:15:07;;;;;;;65.50;36.88;;;;;;;25.43;70.63;100579.45;5054097;56;1143311;-75
2023/06/19 20:20:13;;;;;;;52.78;31.85;;;;;;;25.43;71.31;100582.17;5075583;56;1143369;-78
2023/06/19 20:25:20;;;;;;;45.28;27.67;;;;;;;25.39;71.90;100581.45;5136484;56;1143138;-74
2023/06/19 20:30:26;;;;;;;34.77;24.77;;;;;;;25.25;72.43;100592.84;5056522;56;1150533;-74
2023/06/19 20:35:32;;;;;;;23.83;18.15;;;;;;;25.17;73.04;100589.87;5094111;56;1143057;-82
2023/06/19 20:40:37;;;;;;;33.63;20.43;;;;;;;25.14;73.93;100588.09;5054145;56;1143046;-75
2023/06/19 20:45:43;;;;;;;26.20;20.12;;;;;;;25.10;74.59;100594.97;5029098;56;1143188;-74
2023/06/19 20:50:50;;;;;;;36.80;25.15;;;;;;;25.06;75.21;100590.50;5081116;56;1143039;-78
2023/06/19 20:55:55;;;;;;;28.62;21.42;;;;;;;24.98;75.80;100589.91;5033172;57;1143478;-72
2023/06/19 21:01:01;;;;;;;34.63;23.75;;;;;;;24.92;76.99;100591.53;5032677;57;1142953;-77
2023/06/19 21:06:07;;;;;;;41.95;26.35;;;;;;;24.90;77.13;100601.77;5041173;56;1143435;-75
2023/06/19 21:11:12;;;;;;;38.05;25.77;;;;;;;24.99;77.77;100603.75;5074925;55;1143026;-76
2023/06/19 21:16:19;;;;;;;37.68;25.40;;;;;;;25.00;77.76;100599.48;5070804;55;1142877;-77
2023/06/19 21:21:25;;;;;;;28.70;22.22;;;;;;;25.01;77.96;100601.66;4956865;58;1143044;-77
2023/06/19 21:26:30;;;;;;;30.40;21.75;;;;;;;24.82;77.90;100593.33;5055427;56;1143129;-77
2023/06/19 21:31:36;;;;;;;21.33;17.07;;;;;;;24.61;78.29;100598.95;5054140;56;1143270;-70
2023/06/19 21:36:42;;;;;;;17.52;15.78;;;;;;;24.44;78.97;100601.78;5054822;56;1143288;-77
2023/06/19 21:41:47;;;;;;;16.10;14.47;;;;;;;24.18;78.95;100614.18;5075200;56;1142949;-74
2023/06/19 21:46:53;;;;;;;20.72;17.65;;;;;;;24.01;80.13;100623.70;5054201;56;1143118;-70
2023/06/19 21:51:58;;;;;;;18.57;16.70;;;;;;;23.99;81.38;100620.89;5055097;57;1142997;-70
2023/06/19 21:57:04;;;;;;;18.95;14.75;;;;;;;23.93;80.24;100609.05;5099168;56;1143023;-71
2023/06/19 22:02:10;;;;;;;21.70;15.58;;;;;;;23.93;80.24;100609.05;5124746;56;1142973;-76
2023/06/19 22:07:16;;;;;;;19.90;17.87;;;;;;;23.81;79.71;100610.67;5123838;56;1143325;-75
2023/06/19 22:12:21;;;;;;;26.12;20.52;;;;;;;23.74;79.72;100609.80;5126974;56;1143021;-73
2023/06/19 22:17:27;;;;;;;27.22;20.17;;;;;;;23.63;80.30;100603.64;5039583;56;1142922;-71
2023/06/19 22:22:33;;;;;;;28.23;21.33;;;;;;;23.52;81.58;100605.06;5098468;56;1143107;-76
2023/06/19 22:27:43;;;;;;;25.35;20.48;;;;;;;23.42;82.02;100602.69;4977893;58;1142840;-77
2023/06/19 22:32:46;;;;;;;22.35;19.17;;;;;;;23.44;82.40;100606.02;5126470;56;1143063;-76
2023/06/19 22:37:52;;;;;;;23.95;19.27;;;;;;;23.42;82.51;100600.50;4957309;58;1143167;-71
2023/06/19 22:42:57;;;;;;;27.42;20.88;;;;;;;23.46;83.25;100596.37;5144747;56;1143417;-81
2023/06/19 22:48:03;;;;;;;25.92;20.62;;;;;;;23.30;82.53;100592.15;4958253;58;1143095;-75
2023/06/19 22:53:09;;;;;;;25.30;20.55;;;;;;;23.24;83.60;100592.10;5126833;56;1143058;-70
2023/06/19 22:58:15;;;;;;;25.57;21.67;;;;;;;23.23;84.59;100589.08;4959704;58;1143020;-73